Time;durP1;ratioP1;P1;durP2;ratioP2;P2;SDS_P1;SDS_P2;PMS_P1;PMS_P2;Temp;Humidity;BMP_temperature;BMP_pressure;BME280_temperature;BME280_humidity;BME280_pressure;Samples;Min_cycle;Max_cycle;Signal;HPM_P1;HPM_P2
2023/07/09 00:02:11;;;;;;;4.62;2.42;;;;;;;18.40;64.50;100206.10;1744176;82;21043;-66
2023/07/09 00:04:41;;;;;;;4.37;2.25;;;;;;;18.37;64.51;100193.58;1744062;82;21264;-66
2023/07/09 00:07:24;;;;;;;7.00;2.42;;;;;;;18.36;64.54;100195.22;1744054;82;21026;-65
2023/07/09 00:09:56;;;;;;;2.92;2.15;;;;;;;18.36;64.59;100202.99;1742357;82;21080;-65
2023/07/09 00:12:25;;;;;;;3.77;2.20;;;;;;;18.33;64.78;100195.18;1743937;82;21033;-66
2023/07/09 00:14:57;;;;;;;5.15;2.27;;;;;;;18.34;64.81;100196.02;1744055;82;21009;-66
2023/07/09 00:17:35;;;;;;;3.52;2.30;;;;;;;18.33;65.11;100195.73;1744137;82;21076;-66
2023/07/09 00:20:11;;;;;;;3.92;2.33;;;;;;;18.32;64.84;100187.95;1744129;82;21037;-66
2023/07/09 00:22:37;;;;;;;6.47;2.25;;;;;;;18.28;64.73;100185.39;1743723;82;21077;-66
2023/07/09 00:25:16;;;;;;;5.10;2.20;;;;;;;18.28;64.88;100188.72;1743833;82;21021;-67
2023/07/09 00:27:48;;;;;;;2.77;2.15;;;;;;;18.27;65.13;100177.33;1724873;82;21088;-66
2023/07/09 00:30:19;;;;;;;4.60;2.20;;;;;;;18.25;64.82;100171.19;1744131;82;21009;-66
2023/07/09 00:32:54;;;;;;;6.87;2.35;;;;;;;18.25;64.97;100176.73;1743894;82;21021;-65
2023/07/09 00:35:23;;;;;;;5.35;2.40;;;;;;;18.25;65.18;100176.19;1744232;82;21421;-66
2023/07/09 00:37:53;;;;;;;2.87;2.20;;;;;;;18.25;65.01;100173.97;1743977;82;21464;-66
2023/07/09 00:40:22;;;;;;;5.42;2.35;;;;;;;18.25;65.16;100168.42;1743925;82;21025;-67
2023/07/09 00:42:54;;;;;;;8.68;2.72;;;;;;;18.23;65.17;100169.22;1744017;82;21091;-67
2023/07/09 00:45:25;;;;;;;4.33;2.30;;;;;;;18.22;65.37;100167.54;1743887;82;21473;-66
2023/07/09 00:47:59;;;;;;;3.40;2.30;;;;;;;18.22;65.52;100171.70;1743846;82;21025;-66
2023/07/09 00:50:41;;;;;;;4.12;2.62;;;;;;;18.20;65.49;100173.31;1743809;82;21469;-66
2023/07/09 00:53:18;;;;;;;6.00;2.33;;;;;;;18.19;65.38;100179.95;1743988;82;21053;-66
2023/07/09 00:55:56;;;;;;;5.37;2.40;;;;;;;18.18;65.45;100174.66;1743807;82;21049;-65
2023/07/09 00:58:26;;;;;;;3.90;2.47;;;;;;;18.17;65.67;100174.36;1744096;82;21064;-66
2023/07/09 01:00:59;;;;;;;5.22;2.40;;;;;;;18.16;65.50;100171.30;1744087;82;21502;-65
2023/07/09 01:03:34;;;;;;;4.33;2.15;;;;;;;18.19;65.30;100181.88;1743616;82;21527;-66
2023/07/09 01:06:05;;;;;;;4.60;2.12;;;;;;;18.18;65.22;100174.66;1744126;82;21056;-66
2023/07/09 01:08:36;;;;;;;3.83;2.35;;;;;;;18.16;65.11;100175.45;1744152;82;21045;-67
2023/07/09 01:11:21;;;;;;;4.10;2.40;;;;;;;18.16;65.30;100182.39;1743879;82;21033;-66
2023/07/09 01:13:51;;;;;;;4.30;2.20;;;;;;;18.15;65.29;100173.78;1744078;82;21088;-66
2023/07/09 01:16:23;;;;;;;4.28;2.60;;;;;;;18.15;65.12;100169.06;1743938;82;21421;-66
2023/07/09 01:18:52;;;;;;;3.47;2.40;;;;;;;18.15;65.16;100171.00;1743971;82;21033;-68
2023/07/09 01:21:21;;;;;;;6.67;2.50;;;;;;;18.15;65.22;100180.70;1744122;82;21057;-66
2023/07/09 01:23:52;;;;;;;4.90;2.45;;;;;;;18.13;65.26;100175.96;1743705;82;20986;-66
2023/07/09 01:26:26;;;;;;;3.85;2.42;;;;;;;18.10;65.06;100170.38;1743837;82;21537;-67
2023/07/09 01:28:56;;;;;;;3.83;2.45;;;;;;;18.09;64.91;100171.47;1744051;82;21465;-66
2023/07/09 01:31:25;;;;;;;4.35;2.25;;;;;;;18.08;64.76;100178.66;1743934;82;21068;-67
2023/07/09 01:33:57;;;;;;;4.65;2.30;;;;;;;18.05;64.61;100176.68;1743715;82;21503;-66
2023/07/09 01:36:28;;;;;;;5.78;2.45;;;;;;;18.04;64.64;100181.93;1744034;82;21471;-66
2023/07/09 01:38:58;;;;;;;4.60;2.05;;;;;;;18.03;64.84;100181.63;1743857;82;21487;-66
2023/07/09 01:41:27;;;;;;;5.58;2.60;;;;;;;18.03;64.91;100178.86;1743769;82;21480;-67
2023/07/09 01:43:56;;;;;;;3.77;2.37;;;;;;;18.00;64.85;100180.75;1743899;82;21081;-67
2023/07/09 01:46:25;;;;;;;5.15;2.47;;;;;;;17.98;65.16;100180.17;1743965;82;21076;-66
2023/07/09 01:48:56;;;;;;;5.80;2.50;;;;;;;17.96;65.12;100176.80;1743707;82;21512;-67
2023/07/09 01:51:28;;;;;;;3.80;2.22;;;;;;;17.95;64.91;100183.98;1723441;82;21542;-66
2023/07/09 01:53:59;;;;;;;3.10;2.10;;;;;;;17.92;64.92;100188.65;1744013;82;21025;-65
2023/07/09 01:56:29;;;;;;;4.40;2.15;;;;;;;17.89;64.77;100194.15;1744086;82;21041;-66
2023/07/09 01:59:01;;;;;;;4.30;2.20;;;;;;;17.89;64.88;100196.08;1744043;82;21065;-66
2023/07/09 02:01:33;;;;;;;4.45;2.70;;;;;;;17.87;64.61;100191.33;1743973;82;21057;-66
2023/07/09 02:04:04;;;;;;;3.20;2.20;;;;;;;17.86;64.66;100204.89;1744242;82;20998;-66
2023/07/09 02:06:34;;;;;;;5.05;2.65;;;;;;;17.84;64.62;100199.60;1744059;82;21064;-67
2023/07/09 02:09:03;;;;;;;4.47;2.67;;;;;;;17.85;64.56;100203.22;1743999;82;21100;-66
2023/07/09 02:11:32;;;;;;;4.12;2.60;;;;;;;17.82;64.77;100201.78;1744243;82;21013;-66
2023/07/09 02:14:02;;;;;;;4.90;2.80;;;;;;;17.83;64.87;100204.02;1743896;82;21037;-66
2023/07/09 02:16:32;;;;;;;4.85;2.42;;;;;;;17.84;64.91;100212.63;1744089;82;21013;-65
2023/07/09 02:19:02;;;;;;;4.08;2.50;;;;;;;17.84;65.12;100216.23;1743968;82;21037;-65
2023/07/09 02:21:32;;;;;;;3.27;2.15;;;;;;;17.84;65.11;100224.55;1744199;82;21076;-66
2023/07/09 02:24:01;;;;;;;7.62;2.37;;;;;;;17.84;64.73;100223.16;1744262;82;21057;-67
2023/07/09 02:26:30;;;;;;;4.08;2.45;;;;;;;17.80;64.87;100223.37;1744133;82;21088;-65
2023/07/09 02:28:59;;;;;;;4.45;2.25;;;;;;;17.78;64.85;100228.32;1743907;82;21465;-66
2023/07/09 02:31:29;;;;;;;4.35;2.45;;;;;;;17.77;64.93;100226.64;1744076;82;21073;-67
2023/07/09 02:33:58;;;;;;;5.47;2.40;;;;;;;17.76;65.15;100224.11;1743951;82;21095;-66
2023/07/09 02:36:27;;;;;;;6.42;2.40;;;;;;;17.74;64.96;100220.20;1744140;82;21009;-65
2023/07/09 02:38:56;;;;;;;7.00;2.60;;;;;;;17.74;65.02;100226.59;1744113;82;21012;-66
2023/07/09 02:41:25;;;;;;;9.25;2.30;;;;;;;17.74;65.05;100230.75;1743909;82;21045;-66
2023/07/09 02:43:56;;;;;;;4.75;2.50;;;;;;;17.74;64.98;100232.68;1743857;82;21743;-65
2023/07/09 02:46:25;;;;;;;5.80;2.25;;;;;;;17.75;64.99;100234.36;1743965;82;21069;-66
2023/07/09 02:48:55;;;;;;;4.25;2.47;;;;;;;17.76;64.98;100237.97;1744101;81;21092;-66
2023/07/09 02:51:28;;;;;;;3.05;2.33;;;;;;;17.74;65.28;100232.13;1744076;82;21025;-67
2023/07/09 02:53:58;;;;;;;5.12;2.52;;;;;;;17.75;65.35;100226.05;1744148;82;21962;-65
2023/07/09 02:56:26;;;;;;;2.55;2.05;;;;;;;17.76;65.30;100229.11;1744127;82;21056;-66
2023/07/09 02:58:56;;;;;;;4.28;2.30;;;;;;;17.77;65.36;100230.80;1743964;82;21070;-65
2023/07/09 03:01:27;;;;;;;4.05;2.50;;;;;;;17.78;65.20;100225.55;1743981;82;21071;-66
2023/07/09 03:03:56;;;;;;;6.30;2.62;;;;;;;17.78;65.22;100225.55;1743835;82;21041;-67
2023/07/09 03:06:25;;;;;;;4.80;2.27;;;;;;;17.76;65.09;100222.73;1744159;82;21025;-67
2023/07/09 03:08:55;;;;;;;5.25;2.50;;;;;;;17.76;65.27;100231.05;1744052;82;21049;-66
2023/07/09 03:11:24;;;;;;;4.95;2.40;;;;;;;17.77;65.28;100227.18;1744072;82;21069;-66
2023/07/09 03:13:54;;;;;;;6.08;2.47;;;;;;;17.77;65.25;100223.02;1744091;82;21888;-66
2023/07/09 03:16:23;;;;;;;5.62;2.47;;;;;;;17.76;65.33;100224.11;1744114;82;21029;-66
2023/07/09 03:18:51;;;;;;;3.87;2.27;;;;;;;17.76;65.32;100224.95;1744337;82;21021;-66
2023/07/09 03:21:22;;;;;;;5.40;2.30;;;;;;;17.77;65.51;100225.25;1744883;82;21004;-66
2023/07/09 03:23:51;;;;;;;5.58;2.70;;;;;;;17.80;65.40;100216.98;1744101;82;21313;-66
2023/07/09 03:26:20;;;;;;;3.42;2.50;;;;;;;17.81;65.15;100219.50;1744012;82;21040;-66
2023/07/09 03:28:48;;;;;;;4.87;2.12;;;;;;;17.81;65.20;100214.51;1744091;82;21072;-66
2023/07/09 03:31:17;;;;;;;5.33;2.50;;;;;;;17.82;65.13;100211.48;1744068;82;21037;-65
2023/07/09 03:33:50;;;;;;;4.53;2.27;;;;;;;17.84;65.17;100216.23;1744124;82;21009;-66
2023/07/09 03:36:19;;;;;;;6.22;2.50;;;;;;;17.83;65.16;100221.48;1743998;82;21063;-65
2023/07/09 03:38:49;;;;;;;4.47;2.52;;;;;;;17.83;65.00;100217.33;1744209;82;21025;-65
2023/07/09 03:41:17;;;;;;;5.45;2.60;;;;;;;17.83;65.09;100218.71;1744085;82;21477;-65
2023/07/09 03:43:46;;;;;;;5.75;2.33;;;;;;;17.84;65.09;100214.84;1744149;82;21041;-65
2023/07/09 03:46:15;;;;;;;3.75;2.40;;;;;;;17.85;65.04;100217.08;1743963;82;21088;-65
2023/07/09 03:48:43;;;;;;;2.95;2.12;;;;;;;17.85;64.93;100219.30;1743833;82;21441;-65
2023/07/09 03:51:13;;;;;;;4.20;2.30;;;;;;;17.87;64.90;100217.66;1757226;82;21080;-65
2023/07/09 03:53:41;;;;;;;3.35;2.15;;;;;;;17.87;64.95;100212.12;1757300;82;21114;-64
2023/07/09 03:56:10;;;;;;;5.42;2.20;;;;;;;17.89;65.08;100218.26;1757187;82;21410;-64
2023/07/09 03:58:39;;;;;;;4.67;2.37;;;;;;;17.90;65.06;100220.78;1757171;82;21028;-64
2023/07/09 04:01:08;;;;;;;4.62;2.12;;;;;;;17.94;65.07;100224.73;1757353;81;21026;-65
2023/07/09 04:03:36;;;;;;;4.15;2.20;;;;;;;17.96;65.00;100219.78;1730044;82;21529;-66
2023/07/09 04:06:05;;;;;;;4.78;2.80;;;;;;;17.99;64.74;100231.75;1757387;82;21068;-64
2023/07/09 04:08:35;;;;;;;3.22;2.30;;;;;;;18.01;64.58;100232.34;1757473;82;21068;-65
2023/07/09 04:11:04;;;;;;;5.90;2.27;;;;;;;18.03;64.63;100223.22;1757381;81;21048;-65
2023/07/09 04:13:33;;;;;;;7.85;2.25;;;;;;;18.04;64.16;100225.45;1757280;82;21548;-65
2023/07/09 04:16:02;;;;;;;5.25;2.60;;;;;;;18.04;64.19;100221.30;1757182;81;21072;-65
2023/07/09 04:18:32;;;;;;;4.75;2.62;;;;;;;18.07;64.21;100230.50;1757271;82;21035;-65
2023/07/09 04:21:03;;;;;;;4.00;2.62;;;;;;;18.09;64.16;100226.09;1757386;82;20989;-65
2023/07/09 04:23:32;;;;;;;2.58;2.00;;;;;;;18.11;63.83;100221.97;1757228;82;21031;-65
2023/07/09 04:26:03;;;;;;;5.47;2.40;;;;;;;18.12;63.68;100222.81;1757319;82;20984;-64
2023/07/09 04:28:32;;;;;;;4.90;2.30;;;;;;;18.11;63.61;100229.45;1757201;82;21440;-65
2023/07/09 04:31:02;;;;;;;4.45;2.30;;;;;;;18.11;63.73;100223.35;1757082;82;21044;-65
2023/07/09 04:33:31;;;;;;;3.98;2.17;;;;;;;18.10;64.31;100227.22;1757190;82;21440;-66
2023/07/09 04:36:00;;;;;;;5.25;2.52;;;;;;;18.13;64.26;100227.27;1757465;82;21008;-65
2023/07/09 04:38:30;;;;;;;4.62;2.52;;;;;;;18.15;63.80;100229.23;1757172;82;21510;-65
2023/07/09 04:41:01;;;;;;;5.20;2.65;;;;;;;18.17;63.52;100228.44;1730603;82;21079;-65
2023/07/09 04:43:31;;;;;;;4.22;2.58;;;;;;;18.19;63.33;100229.03;1757383;82;21016;-65
2023/07/09 04:45:59;;;;;;;4.40;2.50;;;;;;;18.20;63.26;100219.06;1757138;82;21480;-65
2023/07/09 04:48:28;;;;;;;7.15;2.40;;;;;;;18.24;63.04;100229.14;1730152;82;21546;-65
2023/07/09 04:50:59;;;;;;;5.08;2.95;;;;;;;18.29;62.77;100229.23;1757205;82;21037;-64
2023/07/09 04:53:28;;;;;;;7.25;2.30;;;;;;;18.33;62.63;100228.47;1757152;81;21083;-65
2023/07/09 04:55:57;;;;;;;4.03;2.40;;;;;;;18.37;62.29;100226.03;1757265;82;21514;-64
2023/07/09 04:58:25;;;;;;;3.85;2.40;;;;;;;18.42;62.46;100216.95;1730364;82;21076;-64
2023/07/09 05:00:59;;;;;;;7.72;2.40;;;;;;;18.50;62.18;100223.45;1730196;82;21083;-65
2023/07/09 05:03:28;;;;;;;4.47;2.10;;;;;;;18.60;62.23;100222.22;1757140;82;21001;-64
2023/07/09 05:05:57;;;;;;;8.73;3.98;;;;;;;18.78;61.21;100223.89;1757149;81;21108;-64
2023/07/09 05:08:28;;;;;;;4.33;2.30;;;;;;;18.97;60.62;100219.75;1757150;82;21056;-64
2023/07/09 05:10:58;;;;;;;6.25;2.62;;;;;;;19.23;60.21;100220.91;1757332;82;21115;-64
2023/07/09 05:13:28;;;;;;;3.75;2.47;;;;;;;19.51;59.55;100224.89;1757476;82;21060;-67
2023/07/09 05:15:56;;;;;;;2.90;2.22;;;;;;;19.77;57.97;100220.47;1757106;82;22112;-65
2023/07/09 05:18:25;;;;;;;3.45;2.40;;;;;;;19.98;57.25;100220.11;1757170;81;21091;-66
2023/07/09 05:20:55;;;;;;;4.75;2.40;;;;;;;20.23;56.81;100219.52;1757531;82;21028;-64
2023/07/09 05:23:25;;;;;;;4.10;2.17;;;;;;;20.51;56.14;100213.64;1757398;82;21032;-64
2023/07/09 05:26:02;;;;;;;5.22;2.40;;;;;;;20.77;55.55;100219.38;1757233;82;21095;-65
2023/07/09 05:28:36;;;;;;;5.03;2.52;;;;;;;21.04;54.54;100218.72;1757159;82;21036;-66
2023/07/09 05:31:02;;;;;;;10.72;2.37;;;;;;;21.29;53.92;100218.58;1757014;81;21000;-65
2023/07/09 05:33:32;;;;;;;6.78;2.40;;;;;;;21.49;53.01;100220.07;1757180;81;21528;-65
2023/07/09 05:36:02;;;;;;;7.10;2.42;;;;;;;21.67;52.50;100214.54;1756991;82;21027;-64
2023/07/09 05:38:32;;;;;;;2.47;2.00;;;;;;;21.89;52.09;100218.48;1757200;82;21424;-65
2023/07/09 05:41:04;;;;;;;5.58;2.08;;;;;;;22.06;51.29;100221.88;1757358;82;21053;-64
2023/07/09 05:43:33;;;;;;;9.30;3.05;;;;;;;22.27;50.89;100213.81;1757373;82;20989;-65
2023/07/09 05:46:04;;;;;;;7.62;2.37;;;;;;;22.52;50.23;100216.31;1757337;82;21453;-65
2023/07/09 05:48:33;;;;;;;4.72;2.25;;;;;;;22.71;49.48;100207.62;1757224;82;21028;-65
2023/07/09 05:51:03;;;;;;;3.20;1.98;;;;;;;22.97;49.27;100212.08;1748674;81;21504;-66
2023/07/09 05:53:33;;;;;;;5.22;2.12;;;;;;;23.28;48.28;100220.34;1723340;82;21045;-65
2023/07/09 05:56:03;;;;;;;5.58;2.33;;;;;;;23.44;47.94;100216.95;1743980;82;21009;-65
2023/07/09 05:58:33;;;;;;;3.42;2.22;;;;;;;23.57;47.74;100212.99;1743997;82;21018;-64
2023/07/09 06:01:02;;;;;;;5.15;2.60;;;;;;;23.71;47.37;100218.22;1743914;82;21064;-65
2023/07/09 06:03:31;;;;;;;3.10;1.87;;;;;;;23.88;47.59;100222.02;1744176;82;21096;-65
2023/07/09 06:06:03;;;;;;;4.40;2.02;;;;;;;24.15;46.63;100214.58;1723438;82;21041;-65
2023/07/09 06:08:32;;;;;;;4.53;2.17;;;;;;;24.42;45.65;100210.46;1744004;82;21021;-65
2023/07/09 06:11:03;;;;;;;4.70;2.20;;;;;;;24.54;45.26;100210.91;1743959;82;21070;-65
2023/07/09 06:13:32;;;;;;;3.35;2.02;;;;;;;24.75;44.68;100216.60;1743997;82;21009;-64
2023/07/09 06:16:01;;;;;;;7.70;2.50;;;;;;;24.88;44.27;100213.09;1743902;82;21096;-65
2023/07/09 06:18:33;;;;;;;4.85;2.35;;;;;;;25.00;43.60;100215.52;1743973;82;21048;-67
2023/07/09 06:21:04;;;;;;;4.08;1.98;;;;;;;25.01;43.73;100214.38;1743989;82;21457;-65
2023/07/09 06:23:33;;;;;;;4.78;2.10;;;;;;;25.11;43.15;100216.23;1744141;82;21025;-65
2023/07/09 06:26:01;;;;;;;4.37;2.05;;;;;;;25.12;43.35;100220.14;1743853;82;21033;-65
2023/07/09 06:28:31;;;;;;;9.63;2.30;;;;;;;25.23;43.33;100213.27;1744176;82;20985;-65
2023/07/09 06:31:00;;;;;;;3.08;2.30;;;;;;;25.28;42.61;100206.20;1743975;82;21461;-65
2023/07/09 06:33:29;;;;;;;5.92;2.90;;;;;;;25.24;42.79;100207.09;1744020;82;21456;-65
2023/07/09 06:36:00;;;;;;;3.25;1.92;;;;;;;25.38;42.62;100211.44;1743905;82;21068;-66
2023/07/09 06:38:29;;;;;;;3.30;2.20;;;;;;;25.49;41.82;100201.18;1743892;82;21053;-65
2023/07/09 06:40:58;;;;;;;5.80;2.00;;;;;;;25.55;41.85;100205.58;1744137;82;21025;-65
2023/07/09 06:43:29;;;;;;;2.62;1.87;;;;;;;25.67;41.43;100198.72;1744355;82;21048;-67
2023/07/09 06:46:01;;;;;;;3.15;1.70;;;;;;;25.82;40.75;100204.94;1743880;82;21113;-65
2023/07/09 06:48:31;;;;;;;3.15;1.90;;;;;;;26.02;40.95;100209.43;1744108;82;21389;-65
2023/07/09 06:51:00;;;;;;;5.92;1.95;;;;;;;26.19;39.91;100204.09;1750313;82;21079;-65
2023/07/09 06:53:30;;;;;;;5.22;2.12;;;;;;;26.17;40.31;100195.71;1730059;82;21079;-65
2023/07/09 06:55:59;;;;;;;3.90;2.20;;;;;;;26.16;40.14;100208.09;1757217;82;21020;-66
2023/07/09 06:58:33;;;;;;;2.98;1.80;;;;;;;26.27;40.66;100201.16;1678789;85;21090;-65
2023/07/09 07:01:03;;;;;;;4.85;2.17;;;;;;;26.38;40.44;100200.44;1634777;88;21114;-65
2023/07/09 07:03:33;;;;;;;4.62;1.92;;;;;;;26.44;39.63;100194.42;1678940;85;21506;-66
2023/07/09 07:06:03;;;;;;;2.87;1.72;;;;;;;26.44;40.19;100188.80;1635262;88;21130;-64
2023/07/09 07:08:33;;;;;;;4.10;1.92;;;;;;;26.50;39.30;100193.19;1679019;85;21466;-65
2023/07/09 07:11:04;;;;;;;4.40;1.70;;;;;;;26.56;39.21;100193.09;1634676;88;21439;-65
2023/07/09 07:13:36;;;;;;;4.05;1.85;;;;;;;26.80;38.20;100189.57;1634641;86;21103;-64
2023/07/09 07:16:08;;;;;;;3.92;1.72;;;;;;;26.80;38.20;100189.57;1699928;82;21072;-64
2023/07/09 07:18:38;;;;;;;4.58;1.70;;;;;;;26.89;38.24;100193.90;1757327;82;21421;-65
2023/07/09 07:21:07;;;;;;;2.47;1.80;;;;;;;26.95;38.04;100194.89;1757202;81;20996;-64
2023/07/09 07:23:36;;;;;;;2.50;1.62;;;;;;;27.09;38.19;100196.33;1757283;82;21070;-66
2023/07/09 07:26:08;;;;;;;3.80;1.98;;;;;;;27.24;38.00;100188.98;1730439;82;21409;-65
2023/07/09 07:28:38;;;;;;;3.22;1.75;;;;;;;27.35;37.63;100193.27;1757208;82;21044;-64
2023/07/09 07:31:08;;;;;;;2.50;1.40;;;;;;;27.40;37.35;100194.56;1757410;82;21044;-66
2023/07/09 07:33:40;;;;;;;3.50;2.02;;;;;;;27.54;36.68;100199.34;1757163;82;21064;-65
2023/07/09 07:36:11;;;;;;;4.53;1.70;;;;;;;27.61;36.23;100188.52;1757399;82;21012;-65
2023/07/09 07:38:41;;;;;;;2.65;1.30;;;;;;;27.59;35.88;100187.97;1757329;82;21004;-64
2023/07/09 07:41:10;;;;;;;4.50;1.70;;;;;;;27.57;35.28;100186.04;1757218;82;21087;-66
2023/07/09 07:43:39;;;;;;;4.83;3.55;;;;;;;27.56;34.80;100183.80;1757283;82;21020;-65
2023/07/09 07:46:08;;;;;;;2.98;1.67;;;;;;;27.63;34.79;100189.86;1757223;82;21052;-67
2023/07/09 07:48:37;;;;;;;4.83;1.80;;;;;;;27.74;34.45;100197.50;1757411;82;21048;-64
2023/07/09 07:51:07;;;;;;;3.55;1.80;;;;;;;27.82;35.05;100186.06;1751778;82;21120;-66
2023/07/09 07:53:37;;;;;;;2.20;1.47;;;;;;;27.89;33.86;100180.23;1743834;82;21052;-67
2023/07/09 07:56:08;;;;;;;3.20;1.62;;;;;;;27.91;34.74;100186.96;1743975;82;21491;-65
2023/07/09 07:58:37;;;;;;;3.95;1.60;;;;;;;28.10;34.23;100184.83;1743945;82;21049;-64
2023/07/09 08:01:06;;;;;;;2.35;1.67;;;;;;;28.22;33.71;100181.44;1744021;82;21049;-65
2023/07/09 08:03:35;;;;;;;2.80;1.90;;;;;;;28.21;33.92;100186.81;1723340;82;21053;-63
2023/07/09 08:06:06;;;;;;;3.12;1.40;;;;;;;28.33;33.04;100186.52;1723091;82;21502;-64
2023/07/09 08:08:36;;;;;;;3.02;1.40;;;;;;;28.35;33.28;100184.78;1743826;82;21738;-64
2023/07/09 08:11:07;;;;;;;5.45;1.82;;;;;;;28.46;33.00;100182.53;1744069;82;21112;-67
2023/07/09 08:13:38;;;;;;;4.55;1.42;;;;;;;28.58;32.40;100177.13;1743998;82;21025;-69
2023/07/09 08:16:06;;;;;;;2.45;1.50;;;;;;;28.59;32.39;100166.94;1744199;82;20998;-63
2023/07/09 08:18:37;;;;;;;4.10;1.70;;;;;;;28.59;32.39;100176.80;1743720;82;21033;-66
2023/07/09 08:21:07;;;;;;;2.72;1.60;;;;;;;28.59;32.25;100171.17;1744044;82;21080;-62
2023/07/09 08:23:36;;;;;;;2.25;1.50;;;;;;;28.52;33.24;100176.44;1744085;82;21029;-64
2023/07/09 08:26:05;;;;;;;6.58;1.60;;;;;;;28.66;32.70;100168.75;1743239;82;21029;-66
2023/07/09 08:28:35;;;;;;;3.25;1.50;;;;;;;28.68;32.96;100173.48;1749272;82;20992;-66
2023/07/09 08:31:03;;;;;;;3.30;1.50;;;;;;;28.68;32.38;100159.38;1687204;84;21472;-66
2023/07/09 08:33:33;;;;;;;1.80;1.45;;;;;;;28.70;32.95;100161.30;1743758;82;21004;-67
2023/07/09 08:36:03;;;;;;;1.82;1.32;;;;;;;28.82;32.51;100172.55;1733421;82;21020;-68
2023/07/09 08:38:31;;;;;;;3.22;1.20;;;;;;;28.78;31.39;100176.59;1743641;82;21034;-68
2023/07/09 08:41:03;;;;;;;2.77;1.42;;;;;;;28.63;31.97;100169.39;1723002;82;21048;-67
2023/07/09 08:43:38;;;;;;;2.12;1.22;;;;;;;28.51;32.77;100173.36;1722984;82;21009;-66
2023/07/09 08:46:17;;;;;;;4.35;1.40;;;;;;;28.53;31.87;100180.92;1743496;82;21061;-67
2023/07/09 08:48:48;;;;;;;3.30;1.30;;;;;;;28.53;31.69;100175.86;1743915;82;21035;-67
2023/07/09 08:51:36;;;;;;;2.42;1.47;;;;;;;28.47;31.98;100171.52;1747928;82;21070;-65
2023/07/09 08:54:07;;;;;;;1.47;1.20;;;;;;;28.45;32.35;100174.66;1745945;81;21078;-65
2023/07/09 08:56:35;;;;;;;4.78;1.55;;;;;;;28.45;33.04;100178.88;1757018;80;21047;-66
2023/07/09 08:59:04;;;;;;;2.17;1.35;;;;;;;28.45;32.50;100181.70;1757163;82;21055;-65
2023/07/09 09:01:40;;;;;;;5.58;1.40;;;;;;;28.48;31.94;100183.05;1757202;80;21039;-64
2023/07/09 09:04:20;;;;;;;3.58;1.30;;;;;;;28.47;32.15;100177.98;1753069;80;21195;-65
2023/07/09 09:06:54;;;;;;;4.20;1.40;;;;;;;28.47;31.63;100172.92;1721695;83;21429;-65
2023/07/09 09:09:35;;;;;;;1.75;1.37;;;;;;;28.40;32.55;100177.61;1730887;83;21138;-66
2023/07/09 09:12:23;;;;;;;4.40;1.40;;;;;;;28.48;32.17;100176.00;1721643;83;21110;-66
2023/07/09 09:14:57;;;;;;;;;;;;;;;28.51;32.58;100162.09;1735013;83;21082;-64
2023/07/09 09:17:28;;;;;;;2.62;1.45;;;;;;;28.55;32.73;100165.09;1732358;83;20198;-63
2023/07/09 09:20:04;;;;;;;3.40;1.42;;;;;;;28.46;33.13;100165.63;1721682;83;21509;-67
2023/07/09 09:22:53;;;;;;;2.30;1.60;;;;;;;28.40;34.27;100166.33;1709534;83;21470;-64
2023/07/09 09:25:31;;;;;;;3.12;1.50;;;;;;;28.31;33.79;100166.86;1698429;83;21051;-63
2023/07/09 09:28:01;;;;;;;4.03;1.47;;;;;;;28.14;33.68;100161.91;1732740;83;21039;-64
2023/07/09 09:30:31;;;;;;;3.20;1.70;;;;;;;27.99;34.62;100168.76;1721533;83;21078;-65
2023/07/09 09:33:08;;;;;;;8.25;1.80;;;;;;;27.77;34.30;100160.26;1732794;83;21038;-76
2023/07/09 09:35:50;;;;;;;4.55;1.60;;;;;;;27.77;34.30;100160.26;1721519;83;21091;-76
2023/07/09 09:38:21;;;;;;;2.60;1.50;;;;;;;27.66;34.49;100158.84;1723218;83;21119;-77
2023/07/09 09:40:49;;;;;;;4.17;1.70;;;;;;;27.58;34.25;100159.56;1692580;85;21089;-77
2023/07/09 09:43:23;;;;;;;2.98;1.45;;;;;;;27.44;34.78;100161.83;1703129;84;21064;-75
2023/07/09 09:45:53;;;;;;;3.25;1.40;;;;;;;27.33;34.99;100163.78;1667716;85;21494;-76
2023/07/09 09:48:31;;;;;;;2.62;1.70;;;;;;;27.20;35.44;100158.98;1703069;84;21091;-75
2023/07/09 09:51:03;;;;;;;3.87;1.50;;;;;;;27.11;35.90;100167.32;1691980;85;21022;-75
2023/07/09 09:53:39;;;;;;;4.28;1.82;;;;;;;26.98;36.36;100165.34;1757344;81;21000;-74
2023/07/09 09:56:19;;;;;;;2.47;1.42;;;;;;;26.98;36.36;100165.34;1751666;82;21059;-74
2023/07/09 09:58:53;;;;;;;4.62;1.57;;;;;;;26.95;36.65;100158.34;1751465;81;21070;-74
2023/07/09 10:01:30;;;;;;;8.45;1.67;;;;;;;26.95;37.31;100147.66;1752040;82;20995;-73
2023/07/09 10:04:00;;;;;;;2.00;1.50;;;;;;;26.89;36.44;100155.37;1751724;82;21004;-73
2023/07/09 10:06:37;;;;;;;2.42;1.57;;;;;;;26.75;36.88;100155.94;1751823;82;21082;-69
2023/07/09 10:09:47;;;;;;;3.33;1.50;;;;;;;26.70;37.02;100142.81;1751589;82;21597;-77
2023/07/09 10:12:45;;;;;;;3.20;2.17;;;;;;;26.71;37.13;100147.30;1751605;82;21027;-74
2023/07/09 10:15:17;;;;;;;;;;;;;;;26.73;37.13;100149.22;1754320;81;21028;-72
2023/07/09 10:18:13;;;;;;;2.15;1.55;;;;;;;26.66;37.21;100146.53;1751770;82;20535;-73
2023/07/09 10:21:03;;;;;;;1.72;1.60;;;;;;;26.58;37.43;100150.89;1744088;82;21056;-72
2023/07/09 10:23:49;;;;;;;3.12;1.50;;;;;;;26.59;37.78;100147.51;1654301;85;21062;-71
2023/07/09 10:26:27;;;;;;;3.75;1.60;;;;;;;26.59;37.35;100139.91;1654298;85;21093;-72
2023/07/09 10:29:11;;;;;;;3.87;2.20;;;;;;;26.57;37.71;100141.36;1654344;87;21516;-73
2023/07/09 10:32:12;;;;;;;2.95;1.70;;;;;;;26.52;37.81;100149.32;1649478;87;21118;-71
2023/07/09 10:35:14;;;;;;;1.77;1.45;;;;;;;26.47;37.45;100143.23;1651599;87;21051;-72
2023/07/09 10:38:16;;;;;;;2.77;1.57;;;;;;;26.44;36.67;100137.39;1662630;85;21090;-72
2023/07/09 10:40:56;;;;;;;3.80;1.50;;;;;;;26.41;37.11;100136.03;1632348;83;21111;-73
2023/07/09 10:43:47;;;;;;;5.87;1.55;;;;;;;26.48;36.63;100142.66;1782672;80;21063;-72
2023/07/09 10:46:20;;;;;;;4.37;1.77;;;;;;;26.49;36.05;100142.34;1782554;80;21486;-73
2023/07/09 10:48:50;;;;;;;7.05;1.70;;;;;;;26.46;35.89;100136.52;1782830;80;21163;-72
2023/07/09 10:51:27;;;;;;;2.22;1.50;;;;;;;26.48;36.47;100137.03;1687117;83;21059;-74
2023/07/09 10:54:05;;;;;;;3.10;1.50;;;;;;;26.52;36.22;100131.05;1781995;80;21086;-73
2023/07/09 10:56:38;;;;;;;2.75;1.62;;;;;;;26.53;36.67;100132.72;1782439;80;21629;-71
2023/07/09 10:59:28;;;;;;;3.80;1.70;;;;;;;26.57;36.37;100131.53;1782641;80;21081;-74
2023/07/09 11:02:20;;;;;;;3.85;1.47;;;;;;;26.58;36.15;100138.24;1770511;80;21464;-72
2023/07/09 11:05:02;;;;;;;2.90;1.60;;;;;;;26.51;36.07;100138.66;1782557;80;21556;-73
2023/07/09 11:07:50;;;;;;;1.98;1.47;;;;;;;26.44;36.55;100138.23;1688481;83;21035;-73
2023/07/09 11:10:33;;;;;;;4.78;1.90;;;;;;;26.37;35.97;100134.16;1751410;82;21074;-73
2023/07/09 11:13:16;;;;;;;2.50;1.60;;;;;;;26.32;36.57;100128.60;1751615;82;21078;-74
2023/07/09 11:15:48;;;;;;;3.67;1.55;;;;;;;26.34;36.79;100126.34;1751700;82;21149;-72
2023/07/09 11:18:22;;;;;;;3.35;1.70;;;;;;;26.38;36.23;100128.23;1722196;82;21086;-74
2023/07/09 11:21:07;;;;;;;2.70;1.80;;;;;;;26.36;36.28;100126.88;1751776;82;21087;-75
2023/07/09 11:23:55;;;;;;;6.37;1.72;;;;;;;26.33;36.64;100114.84;1699262;82;21078;-73
2023/07/09 11:26:29;;;;;;;5.55;4.35;;;;;;;26.34;36.91;100117.92;1751691;82;21062;-75
2023/07/09 11:29:14;;;;;;;3.35;2.58;;;;;;;26.39;36.72;100122.04;1723760;82;21099;-73
2023/07/09 11:31:46;;;;;;;2.72;1.85;;;;;;;26.34;36.96;100127.75;1751911;82;21074;-73
2023/07/09 11:34:19;;;;;;;2.05;1.70;;;;;;;26.30;36.97;100133.69;1751638;82;21043;-73
2023/07/09 11:36:58;;;;;;;2.42;1.70;;;;;;;26.29;37.26;100126.41;1751541;82;21518;-73
2023/07/09 11:39:40;;;;;;;2.80;1.65;;;;;;;26.29;37.05;100127.24;1769664;81;21553;-73
2023/07/09 11:42:32;;;;;;;4.12;1.75;;;;;;;26.27;37.02;100125.88;1701396;84;21016;-72
2023/07/09 11:45:11;;;;;;;5.33;1.80;;;;;;;26.21;36.88;100125.98;1769670;81;21610;-71
2023/07/09 11:48:03;;;;;;;2.80;1.70;;;;;;;26.22;36.87;100127.64;1701775;84;21043;-73
2023/07/09 11:50:33;;;;;;;2.33;1.50;;;;;;;26.23;36.66;100119.48;1701422;84;21045;-74
2023/07/09 11:53:16;;;;;;;1.90;1.60;;;;;;;26.21;36.60;100111.93;1677887;84;21047;-76